Time;durP1;ratioP1;P1;durP2;ratioP2;P2;SDS_P1;SDS_P2;PMS_P1;PMS_P2;Temp;Humidity;BMP_temperature;BMP_pressure;BME280_temperature;BME280_humidity;BME280_pressure;Samples;Min_cycle;Max_cycle;Signal;HPM_P1;HPM_P2
2024/01/14 00:00:54;;;;;;;;;;;;;;;19.89;41.52;100100.38;2056980;28;6013;-65
2024/01/14 00:01:55;;;;;;;;;;;;;;;19.89;41.44;100106.13;2060819;28;2228;-63
2024/01/14 00:02:57;;;;;;;;;;;;;;;19.88;41.49;100098.91;2065076;28;2105;-64
2024/01/14 00:03:58;;;;;;;;;;;;;;;19.88;41.47;100099.66;2059778;28;2086;-63
2024/01/14 00:05:00;;;;;;;;;;;;;;;19.87;41.52;100095.28;2056544;28;2310;-63
2024/01/14 00:06:02;;;;;;;;;;;;;;;19.87;41.45;100103.19;2059971;28;2148;-63
2024/01/14 00:07:04;;;;;;;;;;;;;;;19.86;41.42;100095.97;2059523;28;2040;-63
2024/01/14 00:08:05;;;;;;;;;;;;;;;19.87;41.41;100097.44;2058364;28;2187;-63
2024/01/14 00:09:06;;;;;;;;;;;;;;;19.86;41.66;100087.34;2064231;28;2284;-63
2024/01/14 00:10:08;;;;;;;;;;;;;;;19.85;41.45;100088.72;2061623;28;2070;-63
2024/01/14 00:11:10;;;;;;;;;;;;;;;19.85;41.44;100089.47;2060644;28;1650;-63
2024/01/14 00:12:11;;;;;;;;;;;;;;;19.85;41.63;100080.13;2059948;28;2289;-64
2024/01/14 00:13:12;;;;;;;;;;;;;;;19.84;41.63;100075.78;2059634;28;2173;-63
2024/01/14 00:14:14;;;;;;;;;;;;;;;19.84;41.67;100078.66;2060411;28;1650;-63
2024/01/14 00:15:17;;;;;;;;;;;;;;;19.84;41.58;100075.78;2061904;28;2016;-63
2024/01/14 00:16:19;;;;;;;;;;;;;;;19.84;41.50;100081.53;2059322;28;2107;-63
2024/01/14 00:17:21;;;;;;;;;;;;;;;19.82;41.56;100073.56;2059291;28;1603;-63
2024/01/14 00:18:22;;;;;;;;;;;;;;;19.83;41.65;100080.78;2057403;28;2349;-63
2024/01/14 00:19:24;;;;;;;;;;;;;;;19.83;41.59;100080.03;2060169;28;2129;-64
2024/01/14 00:20:25;;;;;;;;;;;;;;;19.83;41.49;100075.03;2059183;28;2121;-63
2024/01/14 00:21:26;;;;;;;;;;;;;;;19.84;41.61;100070.03;2059837;28;2381;-63
2024/01/14 00:22:28;;;;;;;;;;;;;;;19.84;41.57;100075.78;2060687;28;2302;-63
2024/01/14 00:23:29;;;;;;;;;;;;;;;19.85;41.46;100065.75;2059367;28;2192;-64
2024/01/14 00:24:31;;;;;;;;;;;;;;;19.85;41.62;100068.63;2060237;28;2070;-63
2024/01/14 00:25:32;;;;;;;;;;;;;;;19.83;41.46;100072.16;2059014;28;2066;-64
2024/01/14 00:26:35;;;;;;;;;;;;;;;19.85;41.48;100077.25;2060180;28;2100;-63
2024/01/14 00:27:36;;;;;;;;;;;;;;;19.85;41.57;100062.88;2061078;28;2340;-63
2024/01/14 00:28:37;;;;;;;;;;;;;;;19.85;41.56;100071.50;2061093;28;2084;-63
2024/01/14 00:29:39;;;;;;;;;;;;;;;19.85;41.59;100065.75;2061760;28;1915;-63
2024/01/14 00:30:41;;;;;;;;;;;;;;;19.84;41.53;100059.28;2053929;28;6013;-63
2024/01/14 00:31:42;;;;;;;;;;;;;;;19.85;41.46;100060.00;2054683;28;1690;-63
2024/01/14 00:32:44;;;;;;;;;;;;;;;19.86;41.42;100055.75;2060076;28;2077;-63
2024/01/14 00:33:45;;;;;;;;;;;;;;;19.85;41.53;100057.13;2057401;28;2105;-64
2024/01/14 00:34:47;;;;;;;;;;;;;;;19.85;41.64;100049.25;2059467;28;2228;-63
2024/01/14 00:35:48;;;;;;;;;;;;;;;19.85;41.42;100045.63;2059772;28;2165;-64
2024/01/14 00:36:50;;;;;;;;;;;;;;;19.86;41.62;100058.63;2060873;28;2196;-64
2024/01/14 00:37:54;;;;;;;;;;;;;;;19.85;41.53;100054.25;2062760;28;2333;-63
2024/01/14 00:38:55;;;;;;;;;;;;;;;19.86;41.49;100047.13;2058015;28;2174;-63
2024/01/14 00:39:57;;;;;;;;;;;;;;;19.87;41.55;100062.94;2059125;28;2113;-64
2024/01/14 00:40:58;;;;;;;;;;;;;;;19.86;41.60;100050.00;2062774;28;1598;-63
2024/01/14 00:42:00;;;;;;;;;;;;;;;19.87;41.63;100051.47;2058924;28;2133;-63
2024/01/14 00:43:01;;;;;;;;;;;;;;;19.86;41.55;100050.72;2059157;28;2162;-64
2024/01/14 00:44:02;;;;;;;;;;;;;;;19.86;41.60;100042.13;2060695;28;2106;-63
2024/01/14 00:45:04;;;;;;;;;;;;;;;19.86;41.57;100044.25;2059289;28;2201;-63
2024/01/14 00:46:05;;;;;;;;;;;;;;;19.86;41.60;100044.25;2060279;28;2377;-64
2024/01/14 00:47:07;;;;;;;;;;;;;;;19.85;41.48;100040.63;2062127;28;2358;-63
2024/01/14 00:48:08;;;;;;;;;;;;;;;19.86;41.58;100044.25;2060275;28;2331;-63
2024/01/14 00:49:10;;;;;;;;;;;;;;;19.86;41.61;100041.38;2059662;28;2122;-63
2024/01/14 00:50:11;;;;;;;;;;;;;;;19.85;41.53;100042.75;2059045;28;2306;-64
2024/01/14 00:51:13;;;;;;;;;;;;;;;19.86;41.58;100044.25;2059326;28;2129;-64
2024/01/14 00:52:14;;;;;;;;;;;;;;;19.85;41.57;100046.38;2056718;28;2184;-63
2024/01/14 00:53:16;;;;;;;;;;;;;;;19.85;41.51;100046.38;2060947;28;1964;-63
2024/01/14 00:54:17;;;;;;;;;;;;;;;19.85;41.47;100060.00;2059159;28;2142;-63
2024/01/14 00:55:18;;;;;;;;;;;;;;;19.84;41.48;100044.91;2057355;28;2145;-63
2024/01/14 00:56:20;;;;;;;;;;;;;;;19.84;41.52;100042.03;2058344;28;2329;-63
2024/01/14 00:57:21;;;;;;;;;;;;;;;19.85;41.46;100048.50;2058660;28;2129;-64
2024/01/14 00:58:23;;;;;;;;;;;;;;;19.83;41.46;100040.56;2064295;28;2219;-63
2024/01/14 00:59:24;;;;;;;;;;;;;;;19.83;41.56;100037.69;2057140;28;2199;-64
2024/01/14 01:00:26;;;;;;;;;;;;;;;19.84;41.57;100036.28;2060045;28;6107;-63
2024/01/14 01:01:28;;;;;;;;;;;;;;;19.83;41.47;100031.94;2064196;28;2311;-63
2024/01/14 01:02:29;;;;;;;;;;;;;;;19.82;41.60;100029.75;2058543;28;2424;-63
2024/01/14 01:03:31;;;;;;;;;;;;;;;19.83;41.52;100025.47;2060430;28;2219;-64
2024/01/14 01:04:33;;;;;;;;;;;;;;;19.82;41.61;100032.63;2058475;28;2094;-64
2024/01/14 01:05:34;;;;;;;;;;;;;;;19.82;41.47;100024.72;2060889;28;1892;-64
2024/01/14 01:06:36;;;;;;;;;;;;;;;19.82;41.58;100033.34;2061794;28;2023;-64
2024/01/14 01:07:37;;;;;;;;;;;;;;;19.82;41.58;100029.75;2059299;28;1894;-64
2024/01/14 01:08:39;;;;;;;;;;;;;;;19.83;41.59;100028.34;2057604;28;2316;-63
2024/01/14 01:09:40;;;;;;;;;;;;;;;19.82;41.60;100021.13;2059273;28;2082;-64
2024/01/14 01:10:42;;;;;;;;;;;;;;;19.82;41.45;100021.13;2062566;28;2350;-64
2024/01/14 01:11:43;;;;;;;;;;;;;;;19.83;41.28;100034.06;2060560;28;2008;-63
2024/01/14 01:12:45;;;;;;;;;;;;;;;19.83;41.63;100022.59;2061281;28;2385;-63
2024/01/14 01:13:46;;;;;;;;;;;;;;;19.83;41.55;100028.34;2059893;28;1898;-63
2024/01/14 01:14:48;;;;;;;;;;;;;;;19.82;41.56;100027.59;2058722;28;2173;-63
2024/01/14 01:15:49;;;;;;;;;;;;;;;19.82;41.44;100026.88;2058747;28;2238;-63
2024/01/14 01:16:51;;;;;;;;;;;;;;;19.83;41.61;100023.31;2059928;28;2267;-63
2024/01/14 01:17:52;;;;;;;;;;;;;;;19.83;41.58;100026.19;2058830;28;2157;-63
2024/01/14 01:18:54;;;;;;;;;;;;;;;19.83;41.69;100023.31;2060023;28;2110;-63
2024/01/14 01:19:56;;;;;;;;;;;;;;;19.84;41.65;100018.31;2059523;28;2169;-63
2024/01/14 01:20:57;;;;;;;;;;;;;;;19.83;41.58;100023.31;2058893;28;2138;-63
2024/01/14 01:21:59;;;;;;;;;;;;;;;19.84;41.33;100029.81;2061715;28;2110;-63
2024/01/14 01:23:00;;;;;;;;;;;;;;;19.84;41.55;100029.81;2057347;28;2054;-63
2024/01/14 01:24:02;;;;;;;;;;;;;;;19.84;41.64;100012.56;2059885;28;1566;-63
2024/01/14 01:25:04;;;;;;;;;;;;;;;19.84;41.69;100019.06;2058329;28;2249;-63
2024/01/14 01:26:06;;;;;;;;;;;;;;;19.84;41.64;100009.72;2058138;28;1691;-63
2024/01/14 01:27:07;;;;;;;;;;;;;;;19.84;41.66;100007.56;2060526;28;1965;-63
2024/01/14 01:28:09;;;;;;;;;;;;;;;19.85;41.63;100014.03;2061470;28;2202;-63
2024/01/14 01:29:11;;;;;;;;;;;;;;;19.83;41.69;100003.19;2057873;28;1666;-64
2024/01/14 01:30:12;;;;;;;;;;;;;;;19.83;41.67;100011.81;2058124;28;6162;-63
2024/01/14 01:31:14;;;;;;;;;;;;;;;19.83;41.63;100008.22;2056210;28;2168;-63
2024/01/14 01:32:27;;;;;;;;;;;;;;;19.83;41.61;99997.47;2055749;28;2187;-64
2024/01/14 01:33:29;;;;;;;;;;;;;;;19.84;41.64;100001.09;2058903;28;2073;-64
2024/01/14 01:34:30;;;;;;;;;;;;;;;19.84;41.60;100001.09;2058592;28;2313;-63
2024/01/14 01:35:32;;;;;;;;;;;;;;;19.83;41.53;100002.47;2061297;28;2314;-63
2024/01/14 01:36:33;;;;;;;;;;;;;;;19.85;41.61;100011.16;2059665;28;2453;-63
2024/01/14 01:37:35;;;;;;;;;;;;;;;19.83;41.58;100005.34;2061734;28;1735;-63
2024/01/14 01:38:36;;;;;;;;;;;;;;;19.83;41.41;100003.19;2059352;28;2313;-63
2024/01/14 01:39:38;;;;;;;;;;;;;;;19.83;41.48;100008.22;2058647;28;1928;-63
2024/01/14 01:40:39;;;;;;;;;;;;;;;19.83;41.64;100005.34;2058123;28;2148;-63
2024/01/14 01:41:41;;;;;;;;;;;;;;;19.82;41.61;99995.28;2060893;28;2158;-63
2024/01/14 01:42:42;;;;;;;;;;;;;;;19.82;41.56;99993.13;2058718;28;2016;-63
2024/01/14 01:43:43;;;;;;;;;;;;;;;19.83;41.60;100002.47;2059288;28;2065;-64
2024/01/14 01:44:45;;;;;;;;;;;;;;;19.82;41.58;99992.41;2057907;28;1587;-63
2024/01/14 01:45:46;;;;;;;;;;;;;;;19.82;41.57;100004.63;2059605;28;2179;-63
2024/01/14 01:46:48;;;;;;;;;;;;;;;19.82;41.64;100004.63;2061148;28;2447;-63
2024/01/14 01:47:49;;;;;;;;;;;;;;;19.82;41.61;99998.16;2059569;28;1714;-63
2024/01/14 01:48:51;;;;;;;;;;;;;;;19.82;41.51;99998.16;2055734;28;2199;-63
2024/01/14 01:49:53;;;;;;;;;;;;;;;19.81;41.59;99990.91;2055585;28;2019;-63
2024/01/14 01:50:56;;;;;;;;;;;;;;;19.81;41.47;99996.66;2051820;28;2228;-63
2024/01/14 01:51:57;;;;;;;;;;;;;;;19.81;41.62;99988.03;2053013;28;2433;-63
2024/01/14 01:52:59;;;;;;;;;;;;;;;19.79;41.48;99980.09;2058642;28;2382;-63
2024/01/14 01:54:00;;;;;;;;;;;;;;;19.80;41.57;99986.56;2049854;28;2099;-63
2024/01/14 01:55:02;;;;;;;;;;;;;;;19.80;41.61;99983.72;2050495;28;2114;-63
2024/01/14 01:56:04;;;;;;;;;;;;;;;19.79;41.56;99982.22;2058860;28;2219;-64
2024/01/14 01:57:05;;;;;;;;;;;;;;;19.79;41.54;99977.22;2058156;28;2089;-63
2024/01/14 01:58:07;;;;;;;;;;;;;;;19.80;41.58;99977.97;2059373;28;2141;-63
2024/01/14 01:59:08;;;;;;;;;;;;;;;19.79;41.63;99979.34;2063080;28;2372;-63
2024/01/14 02:00:10;;;;;;;;;;;;;;;19.78;41.47;99969.28;2058237;28;6116;-63
2024/01/14 02:01:11;;;;;;;;;;;;;;;19.79;41.62;99964.97;2051075;28;2263;-65
2024/01/14 02:02:13;;;;;;;;;;;;;;;19.80;41.65;99972.22;2051831;28;2090;-63
2024/01/14 02:03:14;;;;;;;;;;;;;;;19.80;41.61;99966.47;2060026;28;2222;-64
2024/01/14 02:04:16;;;;;;;;;;;;;;;19.78;41.57;99967.13;2056965;28;2197;-63
2024/01/14 02:05:17;;;;;;;;;;;;;;;19.79;41.67;99968.63;2046883;28;2168;-63
2024/01/14 02:06:19;;;;;;;;;;;;;;;19.80;41.57;99972.22;2050150;28;2413;-64
2024/01/14 02:07:21;;;;;;;;;;;;;;;19.79;41.64;99970.72;2058431;28;2162;-63
2024/01/14 02:08:22;;;;;;;;;;;;;;;19.80;41.60;99972.22;2058383;28;2101;-63
2024/01/14 02:09:23;;;;;;;;;;;;;;;19.80;41.64;99972.22;2059032;28;2126;-63
2024/01/14 02:10:25;;;;;;;;;;;;;;;19.80;41.64;99983.72;2057685;28;2626;-63
2024/01/14 02:11:26;;;;;;;;;;;;;;;19.81;41.64;99973.66;2049917;28;2461;-63
2024/01/14 02:12:28;;;;;;;;;;;;;;;19.81;41.66;99979.41;2049782;28;2312;-64
2024/01/14 02:13:29;;;;;;;;;;;;;;;19.80;41.67;99978.69;2059000;28;2061;-64
2024/01/14 02:14:31;;;;;;;;;;;;;;;19.81;41.73;99974.44;2058639;28;2204;-63
2024/01/14 02:15:32;;;;;;;;;;;;;;;19.80;41.64;99978.69;2056136;28;2291;-63
2024/01/14 02:16:33;;;;;;;;;;;;;;;19.81;41.68;99985.16;2057815;28;2236;-63
2024/01/14 02:17:35;;;;;;;;;;;;;;;19.81;41.75;99979.41;2057480;28;2105;-63
2024/01/14 02:18:36;;;;;;;;;;;;;;;19.81;41.75;99973.66;2058498;28;2217;-63
2024/01/14 02:19:38;;;;;;;;;;;;;;;19.81;41.72;99979.41;2057787;28;2436;-63
2024/01/14 02:20:40;;;;;;;;;;;;;;;19.81;41.66;99962.94;2057333;28;2089;-64
2024/01/14 02:21:54;;;;;;;;;;;;;;;19.80;41.67;99972.94;2056726;28;2077;-63
2024/01/14 02:22:55;;;;;;;;;;;;;;;19.81;41.70;99976.53;2052328;28;2561;-63
2024/01/14 02:24:00;;;;;;;;;;;;;;;19.81;41.72;99973.66;2054057;28;2173;-63
2024/01/14 02:25:02;;;;;;;;;;;;;;;19.80;41.74;99977.97;2059635;28;2142;-63
2024/01/14 02:26:03;;;;;;;;;;;;;;;19.81;41.69;99979.41;2056589;28;2069;-63
2024/01/14 02:27:05;;;;;;;;;;;;;;;19.80;41.68;99972.22;2056140;28;2485;-63
2024/01/14 02:28:06;;;;;;;;;;;;;;;19.80;41.54;99972.94;2057741;28;2102;-63
2024/01/14 02:29:08;;;;;;;;;;;;;;;19.79;41.70;99973.59;2051804;28;2076;-63
2024/01/14 02:30:09;;;;;;;;;;;;;;;19.80;41.68;99966.47;2054981;28;6333;-63
2024/01/14 02:31:11;;;;;;;;;;;;;;;19.80;41.61;99964.31;2056487;28;2597;-63
2024/01/14 02:32:13;;;;;;;;;;;;;;;19.79;41.46;99964.97;2058869;28;2226;-63
2024/01/14 02:33:14;;;;;;;;;;;;;;;19.79;41.50;99970.72;2056486;28;2138;-64
2024/01/14 02:34:16;;;;;;;;;;;;;;;19.79;41.62;99962.09;2059595;28;2315;-63
2024/01/14 02:35:18;;;;;;;;;;;;;;;19.79;41.56;99970.72;2056806;28;2126;-64
2024/01/14 02:36:19;;;;;;;;;;;;;;;19.79;41.57;99964.97;2058532;28;2108;-64
2024/01/14 02:37:21;;;;;;;;;;;;;;;19.77;41.57;99962.03;2058167;28;2129;-63
2024/01/14 02:38:22;;;;;;;;;;;;;;;19.78;41.59;99958.50;2056924;28;2368;-63
2024/01/14 02:39:23;;;;;;;;;;;;;;;19.78;41.60;99961.38;2058458;28;2089;-63
2024/01/14 02:40:25;;;;;;;;;;;;;;;19.78;41.61;99969.28;2057890;28;2326;-63
2024/01/14 02:41:26;;;;;;;;;;;;;;;19.78;41.56;99963.53;2058485;28;2365;-63
2024/01/14 02:42:28;;;;;;;;;;;;;;;19.79;41.62;99964.97;2057326;28;2094;-64
2024/01/14 02:43:29;;;;;;;;;;;;;;;19.77;41.62;99968.53;2058761;28;2221;-64
2024/01/14 02:44:31;;;;;;;;;;;;;;;19.78;41.58;99957.78;2057790;28;2322;-64
2024/01/14 02:45:32;;;;;;;;;;;;;;;19.76;41.64;99967.06;2059139;28;2361;-63
2024/01/14 02:46:34;;;;;;;;;;;;;;;19.76;41.59;99963.44;2058072;28;2136;-63
2024/01/14 02:47:35;;;;;;;;;;;;;;;19.75;41.58;99959.13;2056126;28;2117;-63
2024/01/14 02:48:37;;;;;;;;;;;;;;;19.75;41.49;99956.97;2057120;28;2419;-63
2024/01/14 02:49:38;;;;;;;;;;;;;;;19.75;41.40;99959.84;2058140;28;2115;-63
2024/01/14 02:50:40;;;;;;;;;;;;;;;19.75;41.58;99959.84;2059859;28;2195;-63
2024/01/14 02:51:43;;;;;;;;;;;;;;;19.76;41.57;99954.84;2059863;28;1664;-63
2024/01/14 02:52:45;;;;;;;;;;;;;;;19.75;41.55;99959.13;2057265;28;2106;-63
2024/01/14 02:53:46;;;;;;;;;;;;;;;19.76;41.57;99966.31;2059296;28;2212;-63
2024/01/14 02:54:48;;;;;;;;;;;;;;;19.76;41.60;99957.72;2058498;28;2423;-64
2024/01/14 02:55:49;;;;;;;;;;;;;;;19.76;41.52;99957.72;2060670;28;2135;-63
2024/01/14 02:56:51;;;;;;;;;;;;;;;19.76;41.44;99946.22;2062554;28;1624;-63
2024/01/14 02:57:52;;;;;;;;;;;;;;;19.75;41.55;99948.34;2057234;28;2148;-64
2024/01/14 02:58:53;;;;;;;;;;;;;;;19.75;41.62;99954.09;2055654;28;2208;-63
2024/01/14 02:59:55;;;;;;;;;;;;;;;19.75;41.59;99936.13;2059222;28;2093;-63
2024/01/14 03:00:56;;;;;;;;;;;;;;;19.75;41.65;99945.50;2055341;28;6285;-63
2024/01/14 03:01:58;;;;;;;;;;;;;;;19.75;41.63;99956.25;2056963;28;2122;-63
2024/01/14 03:02:59;;;;;;;;;;;;;;;19.75;41.58;99941.88;2058309;28;2167;-63
2024/01/14 03:04:01;;;;;;;;;;;;;;;19.75;41.71;99941.88;2058865;28;2202;-63
2024/01/14 03:05:03;;;;;;;;;;;;;;;19.77;41.74;99939.06;2058370;28;2220;-63
2024/01/14 03:06:04;;;;;;;;;;;;;;;19.75;41.70;99936.13;2057845;28;2107;-63
2024/01/14 03:07:06;;;;;;;;;;;;;;;19.75;41.67;99936.13;2058517;28;2192;-63
2024/01/14 03:08:08;;;;;;;;;;;;;;;19.76;41.55;99943.34;2059132;28;2692;-64
2024/01/14 03:09:09;;;;;;;;;;;;;;;19.75;41.68;99936.13;2056623;28;2205;-63
2024/01/14 03:10:10;;;;;;;;;;;;;;;19.76;41.64;99934.72;2058931;28;2067;-63
2024/01/14 03:11:12;;;;;;;;;;;;;;;19.76;41.71;99931.84;2056781;28;2200;-63
2024/01/14 03:12:13;;;;;;;;;;;;;;;19.76;41.66;99931.84;2060068;28;2175;-63
2024/01/14 03:13:16;;;;;;;;;;;;;;;19.73;41.75;99928.19;2059007;28;2345;-64
2024/01/14 03:14:18;;;;;;;;;;;;;;;19.76;41.43;99938.31;2055582;28;2118;-63
2024/01/14 03:15:19;;;;;;;;;;;;;;;19.76;41.63;99937.59;2057869;28;2203;-63
2024/01/14 03:16:21;;;;;;;;;;;;;;;19.75;41.62;99939.75;2058858;28;2147;-64
2024/01/14 03:17:22;;;;;;;;;;;;;;;19.75;41.63;99931.13;2058524;28;2298;-63
2024/01/14 03:18:25;;;;;;;;;;;;;;;19.75;41.69;99936.88;2052769;28;2142;-63
2024/01/14 03:19:27;;;;;;;;;;;;;;;19.76;41.50;99931.84;2057196;28;2122;-63
2024/01/14 03:20:28;;;;;;;;;;;;;;;19.75;41.63;99933.28;2058278;28;2221;-63
2024/01/14 03:21:30;;;;;;;;;;;;;;;19.75;41.57;99936.13;2058411;28;2123;-63
2024/01/14 03:22:31;;;;;;;;;;;;;;;19.74;41.68;99929.63;2059015;28;2140;-63
2024/01/14 03:23:33;;;;;;;;;;;;;;;19.73;41.68;99933.94;2059625;28;2478;-64
2024/01/14 03:24:34;;;;;;;;;;;;;;;19.74;41.50;99935.38;2057644;28;2181;-63
2024/01/14 03:25:35;;;;;;;;;;;;;;;19.74;41.48;99928.91;2058275;28;2150;-63
2024/01/14 03:26:37;;;;;;;;;;;;;;;19.73;41.59;99921.72;2058464;28;2135;-63
2024/01/14 03:27:38;;;;;;;;;;;;;;;19.73;41.58;99924.59;2061971;28;2139;-63
2024/01/14 03:28:40;;;;;;;;;;;;;;;19.73;41.49;99921.72;2060801;28;2081;-63
2024/01/14 03:29:41;;;;;;;;;;;;;;;19.73;41.52;99918.84;2061264;28;2142;-63
2024/01/14 03:30:44;;;;;;;;;;;;;;;19.73;41.51;99933.94;2057932;28;6013;-63
2024/01/14 03:31:45;;;;;;;;;;;;;;;19.72;41.58;99935.31;2061245;28;2105;-64
2024/01/14 03:32:47;;;;;;;;;;;;;;;19.72;41.44;99925.97;2060320;28;2175;-63
2024/01/14 03:33:49;;;;;;;;;;;;;;;19.73;41.45;99936.06;2058606;28;2144;-63
2024/01/14 03:34:50;;;;;;;;;;;;;;;19.72;41.52;99926.69;2058876;28;2148;-63
2024/01/14 03:35:52;;;;;;;;;;;;;;;19.73;41.63;99933.19;2058374;28;2260;-63
2024/01/14 03:36:53;;;;;;;;;;;;;;;19.74;41.54;99928.91;2059730;28;2153;-63
2024/01/14 03:37:55;;;;;;;;;;;;;;;19.73;41.49;99924.59;2060616;28;2240;-63
2024/01/14 03:38:56;;;;;;;;;;;;;;;19.73;41.69;99922.44;2059860;28;2526;-64
2024/01/14 03:39:58;;;;;;;;;;;;;;;19.73;41.62;99933.19;2058038;28;2168;-64
2024/01/14 03:40:59;;;;;;;;;;;;;;;19.73;41.55;99927.44;2060157;28;2417;-63
2024/01/14 03:42:01;;;;;;;;;;;;;;;19.75;41.63;99927.53;2058122;28;2054;-64
2024/01/14 03:43:02;;;;;;;;;;;;;;;19.74;41.77;99920.28;2062515;28;2044;-63
2024/01/14 03:44:03;;;;;;;;;;;;;;;19.75;41.71;99930.41;2062984;28;2066;-63
2024/01/14 03:45:05;;;;;;;;;;;;;;;19.75;41.72;99934.00;2060206;28;2085;-63
2024/01/14 03:46:07;;;;;;;;;;;;;;;19.76;41.84;99931.84;2058901;28;2276;-64
2024/01/14 03:47:08;;;;;;;;;;;;;;;19.75;41.79;99919.63;2060444;28;2164;-63
2024/01/14 03:48:10;;;;;;;;;;;;;;;19.76;41.71;99931.84;2057253;28;2135;-63
2024/01/14 03:49:11;;;;;;;;;;;;;;;19.76;41.72;99931.84;2057704;28;2358;-63
2024/01/14 03:50:13;;;;;;;;;;;;;;;19.77;41.64;99922.59;2061311;28;1524;-63
2024/01/14 03:51:15;;;;;;;;;;;;;;;19.78;41.69;99929.06;2061256;28;2537;-63
2024/01/14 03:52:16;;;;;;;;;;;;;;;19.76;41.75;99926.09;2057447;28;2079;-63
2024/01/14 03:53:17;;;;;;;;;;;;;;;19.76;41.67;99926.84;2057544;28;2195;-63
2024/01/14 03:54:19;;;;;;;;;;;;;;;19.77;41.57;99927.56;2061179;28;2362;-63
2024/01/14 03:55:20;;;;;;;;;;;;;;;19.78;41.61;99926.19;2060294;28;2069;-63
2024/01/14 03:56:22;;;;;;;;;;;;;;;19.77;41.50;99922.59;2058817;28;2070;-63
2024/01/14 03:57:24;;;;;;;;;;;;;;;19.76;41.70;99918.22;2061103;28;2121;-63
2024/01/14 03:58:25;;;;;;;;;;;;;;;19.76;41.71;99915.34;2060483;28;2089;-63
2024/01/14 03:59:27;;;;;;;;;;;;;;;19.77;41.64;99913.97;2050708;28;2134;-63
2024/01/14 04:00:28;;;;;;;;;;;;;;;19.78;41.68;99923.31;2049931;28;6181;-63
2024/01/14 04:01:29;;;;;;;;;;;;;;;19.77;41.63;99921.81;2061182;28;2353;-63
2024/01/14 04:02:31;;;;;;;;;;;;;;;19.77;41.65;99918.94;2059729;28;2174;-63
2024/01/14 04:03:32;;;;;;;;;;;;;;;19.78;41.66;99917.56;2058514;28;2140;-63
2024/01/14 04:04:34;;;;;;;;;;;;;;;19.78;41.76;99924.03;2057733;28;2054;-63
2024/01/14 04:05:35;;;;;;;;;;;;;;;19.80;41.68;99909.03;2064013;28;1807;-63
2024/01/14 04:06:37;;;;;;;;;;;;;;;19.79;41.79;99913.28;2058705;28;2136;-63
2024/01/14 04:07:38;;;;;;;;;;;;;;;19.80;41.62;99914.75;2059498;28;2127;-64
2024/01/14 04:08:40;;;;;;;;;;;;;;;19.79;41.58;99914.03;2058573;28;2415;-63
2024/01/14 04:09:41;;;;;;;;;;;;;;;19.80;41.67;99906.16;2058971;28;2469;-63
2024/01/14 04:10:43;;;;;;;;;;;;;;;19.81;41.51;99910.47;2056773;28;2438;-63
2024/01/14 04:11:44;;;;;;;;;;;;;;;19.80;41.63;99906.88;2056942;28;2344;-63
2024/01/14 04:12:45;;;;;;;;;;;;;;;19.81;41.70;99910.47;2058698;28;2278;-63
2024/01/14 04:13:47;;;;;;;;;;;;;;;19.81;41.59;99904.72;2052594;28;2123;-63
2024/01/14 04:14:48;;;;;;;;;;;;;;;19.82;41.65;99906.94;2051085;28;2103;-64
2024/01/14 04:15:50;;;;;;;;;;;;;;;19.83;41.62;99907.66;2058853;28;2341;-64
2024/01/14 04:16:51;;;;;;;;;;;;;;;19.83;41.58;99910.53;2059323;28;2180;-63
2024/01/14 04:17:53;;;;;;;;;;;;;;;19.84;41.50;99903.41;2060838;28;2353;-63
2024/01/14 04:18:54;;;;;;;;;;;;;;;19.83;41.55;99907.66;2060143;28;2086;-64
2024/01/14 04:19:56;;;;;;;;;;;;;;;19.84;41.45;99914.91;2057921;28;2148;-63
2024/01/14 04:20:57;;;;;;;;;;;;;;;19.84;41.55;99906.28;2056170;28;2343;-63
2024/01/14 04:21:59;;;;;;;;;;;;;;;19.85;41.51;99902.00;2062071;28;2086;-63
2024/01/14 04:23:00;;;;;;;;;;;;;;;19.85;41.57;99910.63;2061649;28;2225;-63
2024/01/14 04:24:02;;;;;;;;;;;;;;;19.84;41.60;99898.41;2061277;28;2129;-63
2024/01/14 04:25:04;;;;;;;;;;;;;;;19.84;41.41;99909.88;2059441;28;2105;-63
2024/01/14 04:26:06;;;;;;;;;;;;;;;19.86;41.59;99903.47;2058991;28;2188;-63
2024/01/14 04:27:07;;;;;;;;;;;;;;;19.86;41.61;99912.09;2058713;28;2467;-63
2024/01/14 04:28:08;;;;;;;;;;;;;;;19.87;41.57;99913.56;2060537;28;2086;-63
2024/01/14 04:29:10;;;;;;;;;;;;;;;19.86;41.60;99912.09;2059796;28;2298;-63
2024/01/14 04:30:11;;;;;;;;;;;;;;;19.85;41.62;99913.50;2057979;28;6010;-63
2024/01/14 04:31:13;;;;;;;;;;;;;;;19.85;41.64;99917.09;2058611;28;2074;-63
2024/01/14 04:32:14;;;;;;;;;;;;;;;19.86;41.52;99917.84;2057215;28;2379;-63
2024/01/14 04:33:16;;;;;;;;;;;;;;;19.84;41.59;99914.91;2056467;28;2345;-63
2024/01/14 04:34:18;;;;;;;;;;;;;;;19.85;41.65;99922.09;2059603;28;2168;-63
2024/01/14 04:35:19;;;;;;;;;;;;;;;19.84;41.63;99921.38;2059995;28;2095;-63
2024/01/14 04:36:21;;;;;;;;;;;;;;;19.85;41.58;99922.09;2058298;28;2113;-64
2024/01/14 04:37:22;;;;;;;;;;;;;;;19.84;41.63;99920.66;2058868;28;2384;-63
2024/01/14 04:38:23;;;;;;;;;;;;;;;19.83;41.45;99917.03;2060092;28;2387;-63
2024/01/14 04:39:25;;;;;;;;;;;;;;;19.83;41.70;99928.50;2060377;28;2144;-63
2024/01/14 04:40:26;;;;;;;;;;;;;;;19.83;41.72;99919.91;2059326;28;2133;-63
2024/01/14 04:41:28;;;;;;;;;;;;;;;19.83;41.68;99919.91;2058715;28;2423;-63
2024/01/14 04:42:29;;;;;;;;;;;;;;;19.84;41.68;99926.41;2056363;28;2519;-64
2024/01/14 04:43:31;;;;;;;;;;;;;;;19.83;41.50;99931.38;2059855;28;2385;-63
2024/01/14 04:44:32;;;;;;;;;;;;;;;19.84;41.68;99927.13;2058604;28;2156;-63
2024/01/14 04:45:34;;;;;;;;;;;;;;;19.84;41.67;99929.28;2058739;28;2189;-63
2024/01/14 04:46:36;;;;;;;;;;;;;;;19.84;41.70;99924.25;2059500;28;2295;-63
2024/01/14 04:47:37;;;;;;;;;;;;;;;19.85;41.71;99933.59;2059193;28;2153;-63
2024/01/14 04:48:39;;;;;;;;;;;;;;;19.85;41.68;99928.59;2060559;28;2086;-63
2024/01/14 04:49:41;;;;;;;;;;;;;;;19.85;41.70;99934.31;2060264;28;2082;-63
2024/01/14 04:50:42;;;;;;;;;;;;;;;19.86;41.49;99929.34;2058535;28;2143;-63
2024/01/14 04:51:44;;;;;;;;;;;;;;;19.86;41.49;99921.44;2058704;28;2397;-63
2024/01/14 04:52:46;;;;;;;;;;;;;;;19.86;41.56;99930.06;2059670;28;2150;-64
2024/01/14 04:53:47;;;;;;;;;;;;;;;19.87;41.61;99927.94;2060651;28;2077;-63
2024/01/14 04:54:49;;;;;;;;;;;;;;;19.86;41.67;99923.59;2060274;28;1971;-63
2024/01/14 04:55:51;;;;;;;;;;;;;;;19.87;41.56;99928.66;2059434;28;2139;-64
2024/01/14 04:56:52;;;;;;;;;;;;;;;19.86;41.47;99921.44;2060116;28;2298;-63
2024/01/14 04:57:54;;;;;;;;;;;;;;;19.88;41.47;99932.25;2059765;28;2069;-64
2024/01/14 04:58:55;;;;;;;;;;;;;;;19.89;41.63;99930.88;2056789;28;2373;-63
2024/01/14 04:59:57;;;;;;;;;;;;;;;19.88;41.43;99921.53;2059581;28;2251;-63
2024/01/14 05:00:58;;;;;;;;;;;;;;;19.89;41.39;99928.00;2057861;28;7000;-63
2024/01/14 05:01:59;;;;;;;;;;;;;;;19.89;41.58;99928.00;2059051;28;2275;-63
2024/01/14 05:03:01;;;;;;;;;;;;;;;19.90;41.58;99917.97;2058035;28;2070;-63
2024/01/14 05:04:03;;;;;;;;;;;;;;;19.90;41.57;99923.72;2059229;28;2216;-64
2024/01/14 05:05:04;;;;;;;;;;;;;;;19.91;41.56;99919.44;2057388;28;2509;-63
2024/01/14 05:06:06;;;;;;;;;;;;;;;19.91;41.52;99930.94;2058827;28;2106;-63
2024/01/14 05:07:08;;;;;;;;;;;;;;;19.90;41.49;99920.84;2058902;28;2593;-63
2024/01/14 05:08:09;;;;;;;;;;;;;;;19.91;41.41;99925.19;2057460;28;2197;-63
2024/01/14 05:09:10;;;;;;;;;;;;;;;19.92;41.44;99915.16;2058351;28;2291;-63
2024/01/14 05:10:12;;;;;;;;;;;;;;;19.92;41.48;99926.66;2058478;28;2183;-63
2024/01/14 05:11:13;;;;;;;;;;;;;;;19.92;41.55;99923.06;2057594;28;2189;-63
2024/01/14 05:12:15;;;;;;;;;;;;;;;19.91;41.48;99925.19;2059461;28;2083;-63
2024/01/14 05:13:16;;;;;;;;;;;;;;;19.91;41.55;99925.19;2060323;28;2094;-63
2024/01/14 05:14:17;;;;;;;;;;;;;;;19.92;41.51;99928.78;2058980;28;1853;-63
2024/01/14 05:15:19;;;;;;;;;;;;;;;19.91;41.52;99924.47;2058909;28;2103;-63
2024/01/14 05:16:24;;;;;;;;;;;;;;;19.90;41.57;99920.09;2060006;28;2081;-63
2024/01/14 05:17:26;;;;;;;;;;;;;;;19.89;41.61;99922.25;2058467;28;2234;-63
2024/01/14 05:18:28;;;;;;;;;;;;;;;19.89;41.62;99922.25;2060443;28;2105;-63
2024/01/14 05:19:30;;;;;;;;;;;;;;;19.88;41.73;99926.50;2061287;28;2269;-64
2024/01/14 05:20:31;;;;;;;;;;;;;;;19.88;41.63;99923.63;2059536;28;1995;-63
2024/01/14 05:21:33;;;;;;;;;;;;;;;19.88;41.58;99924.41;2060288;28;2365;-63
2024/01/14 05:22:34;;;;;;;;;;;;;;;19.89;41.65;99933.75;2057082;28;2078;-64
2024/01/14 05:23:36;;;;;;;;;;;;;;;19.88;41.65;99930.13;2058279;28;2126;-63